sensor_id;sensor_type;location;lat;lon;timestamp;temperature;humidity
18384;DHT22;9318;48.644;9.456;2024-03-07T00:01:45;5.70;99.90
18384;DHT22;9318;48.644;9.456;2024-03-07T00:04:13;5.70;99.90
18384;DHT22;9318;48.644;9.456;2024-03-07T00:06:40;5.70;99.90
18384;DHT22;9318;48.644;9.456;2024-03-07T00:09:07;5.70;99.90
18384;DHT22;9318;48.644;9.456;2024-03-07T00:11:35;5.70;99.90
18384;DHT22;9318;48.644;9.456;2024-03-07T00:14:02;5.70;99.90
18384;DHT22;9318;48.644;9.456;2024-03-07T00:16:28;5.70;99.90
18384;DHT22;9318;48.644;9.456;2024-03-07T00:18:55;5.70;99.90
18384;DHT22;9318;48.644;9.456;2024-03-07T00:21:23;5.70;99.90
18384;DHT22;9318;48.644;9.456;2024-03-07T00:23:50;5.70;99.90
18384;DHT22;9318;48.644;9.456;2024-03-07T00:26:18;5.70;99.90
18384;DHT22;9318;48.644;9.456;2024-03-07T00:28:44;5.70;99.90
18384;DHT22;9318;48.644;9.456;2024-03-07T00:31:11;5.70;99.90
18384;DHT22;9318;48.644;9.456;2024-03-07T00:33:39;5.70;99.90
18384;DHT22;9318;48.644;9.456;2024-03-07T00:36:06;5.70;99.90
18384;DHT22;9318;48.644;9.456;2024-03-07T00:38:34;5.60;99.90
18384;DHT22;9318;48.644;9.456;2024-03-07T00:41:01;5.60;99.90
18384;DHT22;9318;48.644;9.456;2024-03-07T00:43:28;5.60;99.90
18384;DHT22;9318;48.644;9.456;2024-03-07T00:45:54;5.50;99.90
18384;DHT22;9318;48.644;9.456;2024-03-07T00:48:21;5.50;99.90
18384;DHT22;9318;48.644;9.456;2024-03-07T00:50:50;5.40;99.90
18384;DHT22;9318;48.644;9.456;2024-03-07T00:53:17;5.40;99.90
18384;DHT22;9318;48.644;9.456;2024-03-07T00:55:45;5.40;99.90
18384;DHT22;9318;48.644;9.456;2024-03-07T00:58:12;5.40;99.90
18384;DHT22;9318;48.644;9.456;2024-03-07T01:00:39;5.30;99.90
18384;DHT22;9318;48.644;9.456;2024-03-07T01:03:08;5.30;99.90
18384;DHT22;9318;48.644;9.456;2024-03-07T01:05:36;5.20;99.90
18384;DHT22;9318;48.644;9.456;2024-03-07T01:08:04;5.20;99.90
18384;DHT22;9318;48.644;9.456;2024-03-07T01:10:32;5.10;99.90
18384;DHT22;9318;48.644;9.456;2024-03-07T01:13:00;5.00;99.90
18384;DHT22;9318;48.644;9.456;2024-03-07T01:15:27;5.00;99.90
18384;DHT22;9318;48.644;9.456;2024-03-07T01:17:54;5.00;99.90
18384;DHT22;9318;48.644;9.456;2024-03-07T01:20:21;4.90;99.90
18384;DHT22;9318;48.644;9.456;2024-03-07T01:22:50;4.80;99.90
18384;DHT22;9318;48.644;9.456;2024-03-07T01:25:17;4.80;99.90
18384;DHT22;9318;48.644;9.456;2024-03-07T01:27:44;4.70;99.90
18384;DHT22;9318;48.644;9.456;2024-03-07T01:30:14;4.60;99.90
18384;DHT22;9318;48.644;9.456;2024-03-07T01:32:41;4.50;99.90
18384;DHT22;9318;48.644;9.456;2024-03-07T01:35:08;4.40;99.90
18384;DHT22;9318;48.644;9.456;2024-03-07T01:37:35;4.30;99.90
18384;DHT22;9318;48.644;9.456;2024-03-07T01:40:03;4.30;99.90
18384;DHT22;9318;48.644;9.456;2024-03-07T01:42:30;4.20;99.90
18384;DHT22;9318;48.644;9.456;2024-03-07T01:44:57;4.10;99.90
18384;DHT22;9318;48.644;9.456;2024-03-07T01:47:25;4.10;99.90
18384;DHT22;9318;48.644;9.456;2024-03-07T01:49:52;4.00;99.90
18384;DHT22;9318;48.644;9.456;2024-03-07T01:52:20;4.00;99.90
18384;DHT22;9318;48.644;9.456;2024-03-07T01:54:48;3.90;99.90
18384;DHT22;9318;48.644;9.456;2024-03-07T01:57:15;3.80;99.90
18384;DHT22;9318;48.644;9.456;2024-03-07T01:59:43;3.80;99.90
18384;DHT22;9318;48.644;9.456;2024-03-07T02:02:11;3.80;99.90
18384;DHT22;9318;48.644;9.456;2024-03-07T02:04:39;3.70;99.90
18384;DHT22;9318;48.644;9.456;2024-03-07T02:07:06;3.70;99.90
18384;DHT22;9318;48.644;9.456;2024-03-07T02:09:36;3.60;99.90
18384;DHT22;9318;48.644;9.456;2024-03-07T02:12:04;3.60;99.90
18384;DHT22;9318;48.644;9.456;2024-03-07T02:14:31;3.50;99.90
18384;DHT22;9318;48.644;9.456;2024-03-07T02:16:58;3.50;99.90
18384;DHT22;9318;48.644;9.456;2024-03-07T02:19:25;3.40;99.90
18384;DHT22;9318;48.644;9.456;2024-03-07T02:21:54;3.30;99.90
18384;DHT22;9318;48.644;9.456;2024-03-07T02:24:20;3.30;99.90
18384;DHT22;9318;48.644;9.456;2024-03-07T02:26:47;3.20;99.90
18384;DHT22;9318;48.644;9.456;2024-03-07T02:29:14;3.20;99.90
18384;DHT22;9318;48.644;9.456;2024-03-07T02:31:40;3.10;99.90
18384;DHT22;9318;48.644;9.456;2024-03-07T02:34:07;3.10;99.90
18384;DHT22;9318;48.644;9.456;2024-03-07T02:36:34;3.10;99.90
18384;DHT22;9318;48.644;9.456;2024-03-07T02:39:02;3.00;99.90
18384;DHT22;9318;48.644;9.456;2024-03-07T02:41:30;3.00;99.90
18384;DHT22;9318;48.644;9.456;2024-03-07T02:43:56;2.90;99.90
18384;DHT22;9318;48.644;9.456;2024-03-07T02:46:23;2.90;99.90
18384;DHT22;9318;48.644;9.456;2024-03-07T02:48:50;2.80;99.90
18384;DHT22;9318;48.644;9.456;2024-03-07T02:51:17;2.80;99.90
18384;DHT22;9318;48.644;9.456;2024-03-07T02:53:43;2.70;99.90
18384;DHT22;9318;48.644;9.456;2024-03-07T02:56:11;2.70;99.90
18384;DHT22;9318;48.644;9.456;2024-03-07T02:58:38;2.70;99.90
18384;DHT22;9318;48.644;9.456;2024-03-07T03:01:06;2.60;99.90
18384;DHT22;9318;48.644;9.456;2024-03-07T03:03:32;2.60;99.90
18384;DHT22;9318;48.644;9.456;2024-03-07T03:05:59;2.50;99.90
18384;DHT22;9318;48.644;9.456;2024-03-07T03:08:26;2.50;99.90
18384;DHT22;9318;48.644;9.456;2024-03-07T03:10:54;2.40;99.90
18384;DHT22;9318;48.644;9.456;2024-03-07T03:13:21;2.40;99.90
18384;DHT22;9318;48.644;9.456;2024-03-07T03:15:48;2.30;99.90
18384;DHT22;9318;48.644;9.456;2024-03-07T03:18:14;2.30;99.90
18384;DHT22;9318;48.644;9.456;2024-03-07T03:20:41;2.30;99.90
18384;DHT22;9318;48.644;9.456;2024-03-07T03:23:09;2.30;99.90
18384;DHT22;9318;48.644;9.456;2024-03-07T03:25:39;2.20;99.90
18384;DHT22;9318;48.644;9.456;2024-03-07T03:28:06;2.20;99.90
18384;DHT22;9318;48.644;9.456;2024-03-07T03:30:36;2.20;99.90
18384;DHT22;9318;48.644;9.456;2024-03-07T03:33:04;2.20;99.90
18384;DHT22;9318;48.644;9.456;2024-03-07T03:35:31;2.10;99.90
18384;DHT22;9318;48.644;9.456;2024-03-07T03:37:58;2.00;99.90
18384;DHT22;9318;48.644;9.456;2024-03-07T03:40:24;2.00;99.90
18384;DHT22;9318;48.644;9.456;2024-03-07T03:42:51;2.00;99.90
18384;DHT22;9318;48.644;9.456;2024-03-07T03:45:18;2.00;99.90
18384;DHT22;9318;48.644;9.456;2024-03-07T03:47:47;1.90;99.90
18384;DHT22;9318;48.644;9.456;2024-03-07T03:50:14;1.90;99.90
18384;DHT22;9318;48.644;9.456;2024-03-07T03:52:41;1.90;99.90
18384;DHT22;9318;48.644;9.456;2024-03-07T03:55:08;1.90;99.90
18384;DHT22;9318;48.644;9.456;2024-03-07T03:57:38;1.90;99.90
18384;DHT22;9318;48.644;9.456;2024-03-07T04:00:06;1.80;99.90
18384;DHT22;9318;48.644;9.456;2024-03-07T04:02:38;1.80;99.90
18384;DHT22;9318;48.644;9.456;2024-03-07T04:05:08;1.80;99.90
18384;DHT22;9318;48.644;9.456;2024-03-07T04:07:36;1.80;99.90
18384;DHT22;9318;48.644;9.456;2024-03-07T04:10:04;1.80;99.90
18384;DHT22;9318;48.644;9.456;2024-03-07T04:12:32;1.80;99.90
18384;DHT22;9318;48.644;9.456;2024-03-07T04:14:59;1.70;99.90
18384;DHT22;9318;48.644;9.456;2024-03-07T04:17:26;1.70;99.90
18384;DHT22;9318;48.644;9.456;2024-03-07T04:19:53;1.70;99.90
18384;DHT22;9318;48.644;9.456;2024-03-07T04:22:21;1.70;99.90
18384;DHT22;9318;48.644;9.456;2024-03-07T04:24:49;1.70;99.90
18384;DHT22;9318;48.644;9.456;2024-03-07T04:27:19;1.60;99.90
18384;DHT22;9318;48.644;9.456;2024-03-07T04:29:47;1.60;99.90
18384;DHT22;9318;48.644;9.456;2024-03-07T04:32:14;1.60;99.90
18384;DHT22;9318;48.644;9.456;2024-03-07T04:34:41;1.60;99.90
18384;DHT22;9318;48.644;9.456;2024-03-07T04:37:08;1.60;99.90
18384;DHT22;9318;48.644;9.456;2024-03-07T04:39:36;1.50;99.90
18384;DHT22;9318;48.644;9.456;2024-03-07T04:42:04;1.60;99.90
18384;DHT22;9318;48.644;9.456;2024-03-07T04:44:32;1.50;99.90
18384;DHT22;9318;48.644;9.456;2024-03-07T04:47:01;1.50;99.90
18384;DHT22;9318;48.644;9.456;2024-03-07T04:49:29;1.60;99.90
18384;DHT22;9318;48.644;9.456;2024-03-07T04:51:57;1.50;99.90
18384;DHT22;9318;48.644;9.456;2024-03-07T04:54:25;1.50;99.90
18384;DHT22;9318;48.644;9.456;2024-03-07T04:56:54;1.50;99.90
18384;DHT22;9318;48.644;9.456;2024-03-07T04:59:22;1.50;99.90
18384;DHT22;9318;48.644;9.456;2024-03-07T05:01:49;1.50;99.90
18384;DHT22;9318;48.644;9.456;2024-03-07T05:04:17;1.40;99.90
18384;DHT22;9318;48.644;9.456;2024-03-07T05:06:44;1.40;99.90
18384;DHT22;9318;48.644;9.456;2024-03-07T05:09:14;1.40;99.90
18384;DHT22;9318;48.644;9.456;2024-03-07T05:11:49;1.30;99.90
18384;DHT22;9318;48.644;9.456;2024-03-07T05:14:18;1.30;99.90
18384;DHT22;9318;48.644;9.456;2024-03-07T05:16:45;1.30;99.90
18384;DHT22;9318;48.644;9.456;2024-03-07T05:19:27;1.20;99.90
18384;DHT22;9318;48.644;9.456;2024-03-07T05:21:54;1.20;99.90
18384;DHT22;9318;48.644;9.456;2024-03-07T05:24:21;1.20;99.90
18384;DHT22;9318;48.644;9.456;2024-03-07T05:26:48;1.20;99.90
18384;DHT22;9318;48.644;9.456;2024-03-07T05:29:15;1.10;99.90
18384;DHT22;9318;48.644;9.456;2024-03-07T05:31:44;1.10;99.90
18384;DHT22;9318;48.644;9.456;2024-03-07T05:34:13;1.00;99.90
18384;DHT22;9318;48.644;9.456;2024-03-07T05:36:40;1.00;99.90
18384;DHT22;9318;48.644;9.456;2024-03-07T05:39:10;1.00;99.90
18384;DHT22;9318;48.644;9.456;2024-03-07T05:41:36;1.00;99.90
18384;DHT22;9318;48.644;9.456;2024-03-07T05:44:04;1.00;99.90
18384;DHT22;9318;48.644;9.456;2024-03-07T05:46:34;1.00;99.90
18384;DHT22;9318;48.644;9.456;2024-03-07T05:49:04;0.90;99.90
18384;DHT22;9318;48.644;9.456;2024-03-07T05:51:31;0.90;99.90
18384;DHT22;9318;48.644;9.456;2024-03-07T05:53:58;0.90;99.90
18384;DHT22;9318;48.644;9.456;2024-03-07T05:56:24;0.80;99.90
18384;DHT22;9318;48.644;9.456;2024-03-07T05:58:50;0.80;99.90
18384;DHT22;9318;48.644;9.456;2024-03-07T06:01:17;0.80;99.90
18384;DHT22;9318;48.644;9.456;2024-03-07T06:03:44;0.80;99.90
18384;DHT22;9318;48.644;9.456;2024-03-07T06:06:12;0.80;99.90
18384;DHT22;9318;48.644;9.456;2024-03-07T06:08:39;0.80;99.90
18384;DHT22;9318;48.644;9.456;2024-03-07T06:11:09;0.80;99.90
18384;DHT22;9318;48.644;9.456;2024-03-07T06:13:35;0.70;99.90
18384;DHT22;9318;48.644;9.456;2024-03-07T06:16:03;0.70;99.90
18384;DHT22;9318;48.644;9.456;2024-03-07T06:18:33;0.70;99.90
18384;DHT22;9318;48.644;9.456;2024-03-07T06:21:00;0.60;99.90
18384;DHT22;9318;48.644;9.456;2024-03-07T06:23:28;0.60;99.90
18384;DHT22;9318;48.644;9.456;2024-03-07T06:25:55;0.60;99.90
18384;DHT22;9318;48.644;9.456;2024-03-07T06:28:24;0.60;99.90
18384;DHT22;9318;48.644;9.456;2024-03-07T06:30:51;0.70;99.90
18384;DHT22;9318;48.644;9.456;2024-03-07T06:33:17;0.70;99.90
18384;DHT22;9318;48.644;9.456;2024-03-07T06:35:45;0.80;99.90
18384;DHT22;9318;48.644;9.456;2024-03-07T06:38:12;0.90;99.90
18384;DHT22;9318;48.644;9.456;2024-03-07T06:40:41;1.00;99.90
18384;DHT22;9318;48.644;9.456;2024-03-07T06:43:09;1.10;99.90
18384;DHT22;9318;48.644;9.456;2024-03-07T06:45:36;1.20;99.90
18384;DHT22;9318;48.644;9.456;2024-03-07T06:48:05;1.20;99.90
18384;DHT22;9318;48.644;9.456;2024-03-07T06:50:33;1.20;99.90
18384;DHT22;9318;48.644;9.456;2024-03-07T06:53:00;1.20;99.90
18384;DHT22;9318;48.644;9.456;2024-03-07T06:55:27;1.40;99.90
18384;DHT22;9318;48.644;9.456;2024-03-07T06:57:55;1.40;99.90
18384;DHT22;9318;48.644;9.456;2024-03-07T07:00:22;1.40;99.90
18384;DHT22;9318;48.644;9.456;2024-03-07T07:02:49;1.50;99.90
18384;DHT22;9318;48.644;9.456;2024-03-07T07:05:16;1.70;99.90
18384;DHT22;9318;48.644;9.456;2024-03-07T07:07:44;1.90;99.90
18384;DHT22;9318;48.644;9.456;2024-03-07T07:10:11;2.20;99.90
18384;DHT22;9318;48.644;9.456;2024-03-07T07:12:42;2.40;99.90
18384;DHT22;9318;48.644;9.456;2024-03-07T07:15:11;2.80;99.90
18384;DHT22;9318;48.644;9.456;2024-03-07T07:17:38;3.30;99.90
18384;DHT22;9318;48.644;9.456;2024-03-07T07:20:05;3.80;99.90
18384;DHT22;9318;48.644;9.456;2024-03-07T07:22:36;4.10;99.90
18384;DHT22;9318;48.644;9.456;2024-03-07T07:25:03;4.20;99.90
18384;DHT22;9318;48.644;9.456;2024-03-07T07:27:31;4.20;99.90
18384;DHT22;9318;48.644;9.456;2024-03-07T07:29:58;4.20;99.90
18384;DHT22;9318;48.644;9.456;2024-03-07T07:32:26;4.40;99.90
18384;DHT22;9318;48.644;9.456;2024-03-07T07:34:54;4.60;99.90
18384;DHT22;9318;48.644;9.456;2024-03-07T07:37:21;4.70;99.90
18384;DHT22;9318;48.644;9.456;2024-03-07T07:39:48;4.50;99.90
18384;DHT22;9318;48.644;9.456;2024-03-07T07:42:16;4.40;99.90
18384;DHT22;9318;48.644;9.456;2024-03-07T07:44:43;4.30;99.90
18384;DHT22;9318;48.644;9.456;2024-03-07T07:47:09;4.00;99.90
18384;DHT22;9318;48.644;9.456;2024-03-07T07:49:38;3.80;99.90
18384;DHT22;9318;48.644;9.456;2024-03-07T07:52:05;3.90;99.90
18384;DHT22;9318;48.644;9.456;2024-03-07T07:54:34;4.00;99.90
18384;DHT22;9318;48.644;9.456;2024-03-07T07:57:01;4.10;99.90
18384;DHT22;9318;48.644;9.456;2024-03-07T07:59:27;4.20;99.90
18384;DHT22;9318;48.644;9.456;2024-03-07T08:01:55;4.20;99.90
18384;DHT22;9318;48.644;9.456;2024-03-07T08:04:22;4.40;99.90
18384;DHT22;9318;48.644;9.456;2024-03-07T08:06:50;4.60;99.90
18384;DHT22;9318;48.644;9.456;2024-03-07T08:09:17;4.70;99.90
18384;DHT22;9318;48.644;9.456;2024-03-07T08:11:44;4.90;99.90
18384;DHT22;9318;48.644;9.456;2024-03-07T08:14:10;5.20;99.90
18384;DHT22;9318;48.644;9.456;2024-03-07T08:16:37;5.80;99.90
18384;DHT22;9318;48.644;9.456;2024-03-07T08:19:04;6.00;99.90
18384;DHT22;9318;48.644;9.456;2024-03-07T08:21:32;6.00;99.90
18384;DHT22;9318;48.644;9.456;2024-03-07T08:24:00;5.90;99.90
18384;DHT22;9318;48.644;9.456;2024-03-07T08:26:29;5.80;99.90
18384;DHT22;9318;48.644;9.456;2024-03-07T08:28:56;5.40;99.90
18384;DHT22;9318;48.644;9.456;2024-03-07T08:31:23;5.00;99.90
18384;DHT22;9318;48.644;9.456;2024-03-07T08:33:51;4.70;99.90
18384;DHT22;9318;48.644;9.456;2024-03-07T08:36:19;4.50;99.90
18384;DHT22;9318;48.644;9.456;2024-03-07T08:38:47;4.40;99.90
18384;DHT22;9318;48.644;9.456;2024-03-07T08:41:18;4.30;99.90
18384;DHT22;9318;48.644;9.456;2024-03-07T08:43:45;4.30;99.90
18384;DHT22;9318;48.644;9.456;2024-03-07T08:46:12;4.30;99.90
18384;DHT22;9318;48.644;9.456;2024-03-07T08:48:38;4.40;99.90
18384;DHT22;9318;48.644;9.456;2024-03-07T08:51:05;4.50;99.90
18384;DHT22;9318;48.644;9.456;2024-03-07T08:53:32;4.80;99.90
18384;DHT22;9318;48.644;9.456;2024-03-07T08:56:01;5.30;99.90
18384;DHT22;9318;48.644;9.456;2024-03-07T08:58:29;5.80;99.90
18384;DHT22;9318;48.644;9.456;2024-03-07T09:00:56;6.10;99.90
18384;DHT22;9318;48.644;9.456;2024-03-07T09:03:24;6.20;99.90
18384;DHT22;9318;48.644;9.456;2024-03-07T09:05:51;6.30;99.90
18384;DHT22;9318;48.644;9.456;2024-03-07T09:08:18;6.50;99.90
18384;DHT22;9318;48.644;9.456;2024-03-07T09:10:45;7.50;99.90
18384;DHT22;9318;48.644;9.456;2024-03-07T09:13:12;8.50;99.90
18384;DHT22;9318;48.644;9.456;2024-03-07T09:15:40;9.40;99.90
18384;DHT22;9318;48.644;9.456;2024-03-07T09:18:07;10.40;99.90
18384;DHT22;9318;48.644;9.456;2024-03-07T09:20:33;10.50;99.90
18384;DHT22;9318;48.644;9.456;2024-03-07T09:23:00;11.10;99.90
18384;DHT22;9318;48.644;9.456;2024-03-07T09:25:27;11.30;99.90
18384;DHT22;9318;48.644;9.456;2024-03-07T09:27:58;11.30;99.90
18384;DHT22;9318;48.644;9.456;2024-03-07T09:30:25;11.60;99.90
18384;DHT22;9318;48.644;9.456;2024-03-07T09:32:54;12.30;99.90
18384;DHT22;9318;48.644;9.456;2024-03-07T09:35:21;13.30;99.90
18384;DHT22;9318;48.644;9.456;2024-03-07T09:37:48;14.30;99.90
18384;DHT22;9318;48.644;9.456;2024-03-07T09:40:15;15.10;99.90
18384;DHT22;9318;48.644;9.456;2024-03-07T09:42:43;15.90;99.90
18384;DHT22;9318;48.644;9.456;2024-03-07T09:45:14;16.60;99.90
18384;DHT22;9318;48.644;9.456;2024-03-07T09:47:45;16.80;99.90
18384;DHT22;9318;48.644;9.456;2024-03-07T09:50:15;17.50;99.90
18384;DHT22;9318;48.644;9.456;2024-03-07T09:52:46;17.90;99.90
18384;DHT22;9318;48.644;9.456;2024-03-07T09:55:15;17.50;99.90
18384;DHT22;9318;48.644;9.456;2024-03-07T09:57:43;17.50;99.90
18384;DHT22;9318;48.644;9.456;2024-03-07T10:00:13;17.80;99.90
18384;DHT22;9318;48.644;9.456;2024-03-07T10:02:50;18.10;99.90
18384;DHT22;9318;48.644;9.456;2024-03-07T10:05:22;18.80;99.90
18384;DHT22;9318;48.644;9.456;2024-03-07T10:07:49;18.70;99.00
18384;DHT22;9318;48.644;9.456;2024-03-07T10:10:17;18.20;98.90
18384;DHT22;9318;48.644;9.456;2024-03-07T10:12:44;17.60;99.40
18384;DHT22;9318;48.644;9.456;2024-03-07T10:15:11;17.90;99.30
18384;DHT22;9318;48.644;9.456;2024-03-07T10:17:39;18.20;99.90
18384;DHT22;9318;48.644;9.456;2024-03-07T10:20:07;18.30;98.50
18384;DHT22;9318;48.644;9.456;2024-03-07T10:22:40;18.40;99.30
18384;DHT22;9318;48.644;9.456;2024-03-07T10:25:08;18.90;98.10
18384;DHT22;9318;48.644;9.456;2024-03-07T10:27:36;18.70;98.20
18384;DHT22;9318;48.644;9.456;2024-03-07T10:30:04;18.30;97.70
18384;DHT22;9318;48.644;9.456;2024-03-07T10:32:33;17.70;97.80
18384;DHT22;9318;48.644;9.456;2024-03-07T10:35:00;17.20;98.40
18384;DHT22;9318;48.644;9.456;2024-03-07T10:37:28;17.00;99.80
18384;DHT22;9318;48.644;9.456;2024-03-07T10:39:57;15.80;99.90
18384;DHT22;9318;48.644;9.456;2024-03-07T10:42:29;15.00;99.90
18384;DHT22;9318;48.644;9.456;2024-03-07T10:45:02;14.00;99.90
18384;DHT22;9318;48.644;9.456;2024-03-07T10:47:31;13.80;99.90
18384;DHT22;9318;48.644;9.456;2024-03-07T10:50:07;14.10;99.90
18384;DHT22;9318;48.644;9.456;2024-03-07T10:52:43;13.90;99.90
18384;DHT22;9318;48.644;9.456;2024-03-07T10:55:24;13.60;99.90
18384;DHT22;9318;48.644;9.456;2024-03-07T10:58:01;13.30;99.90
18384;DHT22;9318;48.644;9.456;2024-03-07T11:00:31;12.60;99.90
18384;DHT22;9318;48.644;9.456;2024-03-07T11:03:02;12.00;99.90
18384;DHT22;9318;48.644;9.456;2024-03-07T11:05:33;11.30;99.90
18384;DHT22;9318;48.644;9.456;2024-03-07T11:08:01;10.80;99.90
18384;DHT22;9318;48.644;9.456;2024-03-07T11:10:34;10.30;99.90
18384;DHT22;9318;48.644;9.456;2024-03-07T11:13:02;10.20;99.90
18384;DHT22;9318;48.644;9.456;2024-03-07T11:15:30;10.20;99.90
18384;DHT22;9318;48.644;9.456;2024-03-07T11:17:57;10.30;99.90
18384;DHT22;9318;48.644;9.456;2024-03-07T11:20:26;10.30;99.90
18384;DHT22;9318;48.644;9.456;2024-03-07T11:22:53;10.30;99.90
18384;DHT22;9318;48.644;9.456;2024-03-07T11:25:21;9.90;99.90
18384;DHT22;9318;48.644;9.456;2024-03-07T11:27:55;9.60;99.90
18384;DHT22;9318;48.644;9.456;2024-03-07T11:30:22;9.70;99.90
18384;DHT22;9318;48.644;9.456;2024-03-07T11:32:50;10.10;99.90
18384;DHT22;9318;48.644;9.456;2024-03-07T11:35:18;10.40;99.90
18384;DHT22;9318;48.644;9.456;2024-03-07T11:37:56;10.60;99.90
18384;DHT22;9318;48.644;9.456;2024-03-07T11:40:44;10.60;99.90
18384;DHT22;9318;48.644;9.456;2024-03-07T11:43:15;10.40;99.90
18384;DHT22;9318;48.644;9.456;2024-03-07T11:45:42;10.10;99.90
18384;DHT22;9318;48.644;9.456;2024-03-07T11:48:17;9.50;99.90
18384;DHT22;9318;48.644;9.456;2024-03-07T11:50:46;9.30;99.90
18384;DHT22;9318;48.644;9.456;2024-03-07T11:53:14;9.10;99.90
18384;DHT22;9318;48.644;9.456;2024-03-07T11:55:42;9.10;99.90
18384;DHT22;9318;48.644;9.456;2024-03-07T11:58:14;9.10;99.90
18384;DHT22;9318;48.644;9.456;2024-03-07T12:00:44;8.90;99.90
18384;DHT22;9318;48.644;9.456;2024-03-07T12:03:11;9.00;99.90
18384;DHT22;9318;48.644;9.456;2024-03-07T12:05:40;8.90;99.90
18384;DHT22;9318;48.644;9.456;2024-03-07T12:08:09;8.90;99.90
18384;DHT22;9318;48.644;9.456;2024-03-07T12:10:36;9.00;99.90
18384;DHT22;9318;48.644;9.456;2024-03-07T12:13:05;8.90;99.90
18384;DHT22;9318;48.644;9.456;2024-03-07T12:15:33;8.90;99.90
18384;DHT22;9318;48.644;9.456;2024-03-07T12:18:02;8.90;99.90
18384;DHT22;9318;48.644;9.456;2024-03-07T12:20:35;9.20;99.90
18384;DHT22;9318;48.644;9.456;2024-03-07T12:23:03;9.40;99.90
18384;DHT22;9318;48.644;9.456;2024-03-07T12:25:33;9.70;99.90
18384;DHT22;9318;48.644;9.456;2024-03-07T12:28:03;10.00;99.90
18384;DHT22;9318;48.644;9.456;2024-03-07T12:30:33;10.20;99.90
18384;DHT22;9318;48.644;9.456;2024-03-07T12:33:03;10.00;99.90
18384;DHT22;9318;48.644;9.456;2024-03-07T12:35:34;9.70;99.90
18384;DHT22;9318;48.644;9.456;2024-03-07T12:38:01;9.60;99.90
18384;DHT22;9318;48.644;9.456;2024-03-07T12:40:29;9.60;99.90
18384;DHT22;9318;48.644;9.456;2024-03-07T12:42:59;9.80;99.90
18384;DHT22;9318;48.644;9.456;2024-03-07T12:45:28;9.90;99.90
18384;DHT22;9318;48.644;9.456;2024-03-07T12:47:59;10.00;99.90
18384;DHT22;9318;48.644;9.456;2024-03-07T12:50:31;9.90;99.90
18384;DHT22;9318;48.644;9.456;2024-03-07T12:53:00;10.00;99.90
18384;DHT22;9318;48.644;9.456;2024-03-07T12:55:31;10.00;99.90
18384;DHT22;9318;48.644;9.456;2024-03-07T12:57:58;10.10;99.90
18384;DHT22;9318;48.644;9.456;2024-03-07T13:00:26;10.10;99.90
18384;DHT22;9318;48.644;9.456;2024-03-07T13:02:55;9.90;99.90
18384;DHT22;9318;48.644;9.456;2024-03-07T13:05:23;9.80;99.90
18384;DHT22;9318;48.644;9.456;2024-03-07T13:07:52;9.60;99.90
18384;DHT22;9318;48.644;9.456;2024-03-07T13:10:19;9.40;99.90
18384;DHT22;9318;48.644;9.456;2024-03-07T13:12:46;9.20;99.90
18384;DHT22;9318;48.644;9.456;2024-03-07T13:15:14;9.20;99.90
18384;DHT22;9318;48.644;9.456;2024-03-07T13:17:41;9.10;99.90
18384;DHT22;9318;48.644;9.456;2024-03-07T13:20:09;9.20;99.90
18384;DHT22;9318;48.644;9.456;2024-03-07T13:22:40;9.30;99.90
18384;DHT22;9318;48.644;9.456;2024-03-07T13:25:11;9.40;99.90
18384;DHT22;9318;48.644;9.456;2024-03-07T13:27:44;9.60;99.90
18384;DHT22;9318;48.644;9.456;2024-03-07T13:30:17;9.60;99.90
18384;DHT22;9318;48.644;9.456;2024-03-07T13:32:50;9.40;99.90
18384;DHT22;9318;48.644;9.456;2024-03-07T13:35:18;9.50;99.90
18384;DHT22;9318;48.644;9.456;2024-03-07T13:37:46;9.60;99.90
18384;DHT22;9318;48.644;9.456;2024-03-07T13:40:15;9.60;99.90
18384;DHT22;9318;48.644;9.456;2024-03-07T13:42:52;9.70;99.90
18384;DHT22;9318;48.644;9.456;2024-03-07T13:45:21;9.80;99.90
18384;DHT22;9318;48.644;9.456;2024-03-07T13:47:48;9.80;99.90
18384;DHT22;9318;48.644;9.456;2024-03-07T13:50:16;9.90;99.90
18384;DHT22;9318;48.644;9.456;2024-03-07T13:52:45;9.90;99.90
18384;DHT22;9318;48.644;9.456;2024-03-07T13:55:32;9.90;99.90
18384;DHT22;9318;48.644;9.456;2024-03-07T13:58:04;10.10;99.90
18384;DHT22;9318;48.644;9.456;2024-03-07T14:00:41;10.10;99.90
18384;DHT22;9318;48.644;9.456;2024-03-07T14:03:39;10.20;99.90
18384;DHT22;9318;48.644;9.456;2024-03-07T14:06:14;10.20;99.90
18384;DHT22;9318;48.644;9.456;2024-03-07T14:09:19;10.00;99.90
18384;DHT22;9318;48.644;9.456;2024-03-07T14:12:28;9.90;99.90
18384;DHT22;9318;48.644;9.456;2024-03-07T14:15:35;9.80;99.90
18384;DHT22;9318;48.644;9.456;2024-03-07T14:18:42;9.70;99.90
18384;DHT22;9318;48.644;9.456;2024-03-07T14:21:40;9.50;99.90
18384;DHT22;9318;48.644;9.456;2024-03-07T14:27:30;9.40;99.90
18384;DHT22;9318;48.644;9.456;2024-03-07T14:30:18;9.60;99.90
18384;DHT22;9318;48.644;9.456;2024-03-07T14:32:49;9.60;99.90
18384;DHT22;9318;48.644;9.456;2024-03-07T14:35:23;9.60;99.90
18384;DHT22;9318;48.644;9.456;2024-03-07T14:37:54;9.70;99.90
18384;DHT22;9318;48.644;9.456;2024-03-07T14:40:22;9.70;99.90
18384;DHT22;9318;48.644;9.456;2024-03-07T14:42:56;9.60;99.90
18384;DHT22;9318;48.644;9.456;2024-03-07T14:45:27;9.50;99.90
18384;DHT22;9318;48.644;9.456;2024-03-07T14:47:56;9.60;99.90
18384;DHT22;9318;48.644;9.456;2024-03-07T14:50:24;9.70;99.90
18384;DHT22;9318;48.644;9.456;2024-03-07T14:52:54;9.70;99.90
18384;DHT22;9318;48.644;9.456;2024-03-07T14:55:21;9.70;99.90
18384;DHT22;9318;48.644;9.456;2024-03-07T14:57:48;9.90;99.90
18384;DHT22;9318;48.644;9.456;2024-03-07T15:00:17;10.00;99.90
18384;DHT22;9318;48.644;9.456;2024-03-07T15:02:46;10.10;99.90
18384;DHT22;9318;48.644;9.456;2024-03-07T15:05:14;10.20;99.90
18384;DHT22;9318;48.644;9.456;2024-03-07T15:07:42;10.20;99.90
18384;DHT22;9318;48.644;9.456;2024-03-07T15:10:14;10.10;99.90
18384;DHT22;9318;48.644;9.456;2024-03-07T15:12:44;10.00;99.90
18384;DHT22;9318;48.644;9.456;2024-03-07T15:15:12;10.00;99.90
18384;DHT22;9318;48.644;9.456;2024-03-07T15:17:41;9.90;99.90
18384;DHT22;9318;48.644;9.456;2024-03-07T15:20:08;9.80;99.90
18384;DHT22;9318;48.644;9.456;2024-03-07T15:22:41;9.60;99.90
18384;DHT22;9318;48.644;9.456;2024-03-07T15:25:12;9.40;99.90
18384;DHT22;9318;48.644;9.456;2024-03-07T15:27:39;9.30;99.90
18384;DHT22;9318;48.644;9.456;2024-03-07T15:30:07;9.20;99.90
18384;DHT22;9318;48.644;9.456;2024-03-07T15:32:41;9.20;99.90
18384;DHT22;9318;48.644;9.456;2024-03-07T15:35:09;9.00;99.90
18384;DHT22;9318;48.644;9.456;2024-03-07T15:37:43;8.90;99.90
18384;DHT22;9318;48.644;9.456;2024-03-07T15:40:10;8.90;99.90
18384;DHT22;9318;48.644;9.456;2024-03-07T15:42:40;8.80;99.90
18384;DHT22;9318;48.644;9.456;2024-03-07T15:45:08;8.80;99.90
18384;DHT22;9318;48.644;9.456;2024-03-07T15:47:43;8.70;99.90
18384;DHT22;9318;48.644;9.456;2024-03-07T15:50:10;8.70;99.90
18384;DHT22;9318;48.644;9.456;2024-03-07T15:52:38;8.70;99.90
18384;DHT22;9318;48.644;9.456;2024-03-07T15:55:07;8.60;99.90
18384;DHT22;9318;48.644;9.456;2024-03-07T15:57:41;8.60;99.90
18384;DHT22;9318;48.644;9.456;2024-03-07T16:00:10;8.70;99.90
18384;DHT22;9318;48.644;9.456;2024-03-07T16:02:50;8.70;99.90
18384;DHT22;9318;48.644;9.456;2024-03-07T16:05:16;8.70;99.90
18384;DHT22;9318;48.644;9.456;2024-03-07T16:07:43;8.70;99.90
18384;DHT22;9318;48.644;9.456;2024-03-07T16:10:11;8.70;99.90
18384;DHT22;9318;48.644;9.456;2024-03-07T16:12:39;8.70;99.90
18384;DHT22;9318;48.644;9.456;2024-03-07T16:15:06;8.60;99.90